Time;durP1;ratioP1;P1;durP2;ratioP2;P2;SDS_P1;SDS_P2;PMS_P1;PMS_P2;Temp;Humidity;BMP_temperature;BMP_pressure;BME280_temperature;BME280_humidity;BME280_pressure;Samples;Min_cycle;Max_cycle;Signal;HPM_P1;HPM_P2
2022/05/03 00:01:33;;;;;;;;;;;;;;;8.27;60.32;97258.70;109750;1250;60562;-68
2022/05/03 00:04:21;;;;;;;;;;;;;;;8.26;59.99;97254.61;109700;1251;60503;-68
2022/05/03 00:06:55;;;;;;;;;;;;;;;8.26;60.26;97253.42;109660;1250;72325;-70
2022/05/03 00:09:32;;;;;;;;;;;;;;;8.24;60.62;97254.09;109769;1250;68623;-69
2022/05/03 00:12:05;;;;;;;;;;;;;;;8.21;60.93;97253.91;109633;1250;69355;-67
2022/05/03 00:15:05;;;;;;;;;;;;;;;8.19;60.86;97257.35;109492;1254;60515;-68
2022/05/03 00:17:35;;;;;;;;;;;;;;;8.16;60.50;97255.75;109101;1258;60500;-67
2022/05/03 00:20:06;;;;;;;;;;;;;;;8.13;61.00;97256.31;109146;1256;72427;-68
2022/05/03 00:22:36;;;;;;;;;;;;;;;8.10;60.71;97254.77;109207;1258;67902;-68
2022/05/03 00:25:06;;;;;;;;;;;;;;;8.08;61.58;97257.69;109137;1259;67854;-69
2022/05/03 00:27:37;;;;;;;;;;;;;;;8.04;62.47;97255.16;109106;1258;60561;-66
2022/05/03 00:30:07;;;;;;;;;;;;;;;8.01;62.78;97255.03;109151;1259;60594;-67
2022/05/03 00:32:40;;;;;;;;;;;;;;;7.97;62.83;97254.77;109048;1259;73016;-67
2022/05/03 00:35:09;;;;;;;;;;;;;;;7.94;63.50;97252.20;109067;1260;67821;-68
2022/05/03 00:37:40;;;;;;;;;;;;;;;7.91;62.76;97252.39;109090;1259;69524;-67
2022/05/03 00:40:14;;;;;;;;;;;;;;;7.88;62.02;97251.01;109123;1258;60507;-68
2022/05/03 00:42:47;;;;;;;;;;;;;;;7.89;61.79;97250.24;109132;1256;60548;-67
2022/05/03 00:45:23;;;;;;;;;;;;;;;7.91;60.97;97244.59;109140;1257;72438;-68
2022/05/03 00:47:54;;;;;;;;;;;;;;;7.92;60.88;97248.00;109177;1257;68050;-68
2022/05/03 00:50:43;;;;;;;;;;;;;;;7.93;61.04;97247.04;109146;1257;69672;-68
2022/05/03 00:53:13;;;;;;;;;;;;;;;7.95;60.52;97246.05;109178;1257;60541;-67
2022/05/03 00:56:02;;;;;;;;;;;;;;;7.97;60.49;97244.40;109746;1250;60578;-67
2022/05/03 00:58:40;;;;;;;;;;;;;;;8.00;60.34;97246.98;109819;1250;72427;-68
2022/05/03 01:01:29;;;;;;;;;;;;;;;8.03;59.77;97248.34;109793;1250;68481;-67
2022/05/03 01:04:17;;;;;;;;;;;;;;;8.06;59.41;97249.70;109760;1250;68437;-67
2022/05/03 01:06:48;;;;;;;;;;;;;;;8.08;59.25;97251.29;109714;1249;60489;-67
2022/05/03 01:09:32;;;;;;;;;;;;;;;8.10;59.34;97254.48;109855;1250;60499;-69
2022/05/03 01:12:08;;;;;;;;;;;;;;;8.11;59.41;97253.30;109846;1250;71608;-68
2022/05/03 01:14:44;;;;;;;;;;;;;;;8.14;59.84;97255.44;109759;1250;68483;-68
2022/05/03 01:17:29;;;;;;;;;;;;;;;8.15;60.02;97251.48;109794;1250;68636;-68
2022/05/03 01:20:05;;;;;;;;;;;;;;;8.16;59.93;97251.80;109596;1250;60513;-68
2022/05/03 01:22:53;;;;;;;;;;;;;;;8.16;60.34;97253.34;109771;1250;60500;-69
2022/05/03 01:25:43;;;;;;;;;;;;;;;8.14;60.43;97251.77;109823;1249;72326;-66
2022/05/03 01:28:30;;;;;;;;;;;;;;;8.12;60.80;97252.38;109802;1250;67678;-68
2022/05/03 01:31:04;;;;;;;;;;;;;;;8.11;60.24;97250.01;109799;1250;68629;-69
2022/05/03 01:33:38;;;;;;;;;;;;;;;8.12;59.89;97251.52;109733;1250;60534;-67
2022/05/03 01:36:09;;;;;;;;;;;;;;;8.14;60.13;97251.09;109843;1250;60555;-68
2022/05/03 01:38:43;;;;;;;;;;;;;;;8.15;59.36;97251.33;109889;1250;72259;-67
2022/05/03 01:41:28;;;;;;;;;;;;;;;8.18;59.39;97252.55;109799;1250;67836;-67
2022/05/03 01:44:16;;;;;;;;;;;;;;;8.20;59.34;97252.45;109666;1249;69401;-68
2022/05/03 01:46:51;;;;;;;;;;;;;;;8.21;59.69;97249.23;109968;1250;60587;-69
2022/05/03 01:52:20;;;;;;;;;;;;;;;8.22;59.73;97245.69;109776;1249;71580;-68
2022/05/03 01:55:08;;;;;;;;;;;;;;;8.23;59.07;97247.33;109856;1250;67883;-68
2022/05/03 01:57:38;;;;;;;;;;;;;;;8.25;59.91;97244.96;109673;1250;68482;-68
2022/05/03 02:00:10;;;;;;;;;;;;;;;8.24;60.49;97245.36;109839;1250;60517;-67
2022/05/03 02:03:01;;;;;;;;;;;;;;;8.24;60.75;97242.64;109854;1250;60807;-68
2022/05/03 02:05:49;;;;;;;;;;;;;;;8.23;60.69;97243.39;109896;1249;72185;-68
2022/05/03 02:08:23;;;;;;;;;;;;;;;8.21;60.18;97236.91;109647;1251;68555;-66
2022/05/03 02:10:58;;;;;;;;;;;;;;;8.22;59.79;97236.47;109586;1251;69264;-69
2022/05/03 02:16:49;;;;;;;;;;;;;;;8.24;59.68;97238.42;109813;1250;60878;-69
2022/05/03 02:19:37;;;;;;;;;;;;;;;8.26;59.67;97238.50;109737;1250;72210;-68
2022/05/03 02:22:19;;;;;;;;;;;;;;;8.26;59.76;97239.19;109767;1250;68418;-67
2022/05/03 02:24:56;;;;;;;;;;;;;;;8.26;60.04;97242.80;109800;1250;68270;-67
2022/05/03 02:27:26;;;;;;;;;;;;;;;8.26;59.82;97244.56;109849;1250;60581;-67
2022/05/03 02:29:57;;;;;;;;;;;;;;;8.26;60.11;97238.50;109635;1250;60442;-67
2022/05/03 02:32:51;;;;;;;;;;;;;;;8.24;60.06;97237.21;109867;1250;71569;-68
2022/05/03 02:35:21;;;;;;;;;;;;;;;8.24;60.43;97237.42;109646;1251;68798;-68
2022/05/03 02:37:56;;;;;;;;;;;;;;;8.23;60.38;97236.58;109640;1250;69381;-68
2022/05/03 02:40:29;;;;;;;;;;;;;;;8.22;60.31;97238.22;109831;1250;60928;-68
2022/05/03 02:42:59;;;;;;;;;;;;;;;8.20;60.80;97237.88;109829;1250;60500;-66
2022/05/03 02:45:34;;;;;;;;;;;;;;;8.16;60.36;97235.30;109846;1250;71656;-67
2022/05/03 02:48:07;;;;;;;;;;;;;;;8.14;60.28;97236.97;109874;1250;67726;-67
2022/05/03 02:50:42;;;;;;;;;;;;;;;8.12;60.62;97237.13;109785;1250;68616;-68
2022/05/03 02:53:23;;;;;;;;;;;;;;;8.10;60.79;97240.52;109786;1250;60559;-67
2022/05/03 02:56:03;;;;;;;;;;;;;;;8.10;60.23;97238.83;109685;1250;60555;-68
2022/05/03 02:58:38;;;;;;;;;;;;;;;8.11;60.28;97236.70;109653;1251;72511;-69
2022/05/03 03:04:11;;;;;;;;;;;;;;;8.16;60.32;97240.85;109787;1250;69433;-67
2022/05/03 03:06:42;;;;;;;;;;;;;;;8.17;59.87;97239.90;109855;1250;60471;-68
2022/05/03 03:09:17;;;;;;;;;;;;;;;8.20;59.82;97240.27;109857;1250;60511;-69
2022/05/03 03:11:53;;;;;;;;;;;;;;;8.23;59.85;97241.83;109627;1250;72380;-67
2022/05/03 03:14:33;;;;;;;;;;;;;;;8.25;60.19;97238.02;109802;1249;67609;-67
2022/05/03 03:17:09;;;;;;;;;;;;;;;8.25;59.65;97238.00;109740;1250;69391;-68
2022/05/03 03:19:38;;;;;;;;;;;;;;;8.26;59.96;97241.63;109583;1249;60575;-66
2022/05/03 03:22:12;;;;;;;;;;;;;;;8.24;60.24;97238.27;109813;1250;60928;-67
2022/05/03 03:24:42;;;;;;;;;;;;;;;8.22;60.73;97241.68;109655;1251;71477;-66
2022/05/03 03:27:12;;;;;;;;;;;;;;;8.20;60.27;97243.73;109790;1250;68616;-67
2022/05/03 03:29:43;;;;;;;;;;;;;;;8.20;60.03;97243.44;109568;1250;69292;-67
2022/05/03 03:32:15;;;;;;;;;;;;;;;8.19;60.12;97243.66;109700;1250;60502;-69
2022/05/03 03:34:47;;;;;;;;;;;;;;;8.17;60.15;97243.70;109752;1250;60495;-68
2022/05/03 03:37:18;;;;;;;;;;;;;;;8.17;60.46;97243.88;109883;1249;72377;-69
2022/05/03 03:39:47;;;;;;;;;;;;;;;8.18;60.59;97243.86;109616;1250;69179;-68
2022/05/03 03:42:18;;;;;;;;;;;;;;;8.23;61.55;97245.23;109857;1250;68976;-65
2022/05/03 03:44:49;;;;;;;;;;;;;;;8.27;60.84;97245.31;109858;1250;60566;-67
2022/05/03 03:47:19;;;;;;;;;;;;;;;8.29;60.01;97244.14;109835;1250;60510;-68
2022/05/03 03:49:48;;;;;;;;;;;;;;;8.31;60.52;97249.59;109845;1249;72531;-70
2022/05/03 03:52:19;;;;;;;;;;;;;;;8.31;60.36;97250.42;109800;1250;67659;-70
2022/05/03 03:54:49;;;;;;;;;;;;;;;8.33;60.30;97249.83;109822;1250;69589;-68
2022/05/03 03:57:26;;;;;;;;;;;;;;;8.35;60.52;97251.77;109811;1250;60587;-69
2022/05/03 03:59:58;;;;;;;;;;;;;;;8.38;60.29;97254.36;109860;1250;60430;-67
2022/05/03 04:02:27;;;;;;;;;;;;;;;8.42;59.96;97256.72;109841;1250;72161;-68
2022/05/03 04:04:58;;;;;;;;;;;;;;;8.46;59.77;97254.58;109702;1250;68726;-66
2022/05/03 04:07:28;;;;;;;;;;;;;;;8.51;59.49;97254.53;109787;1250;69367;-67
2022/05/03 04:09:58;;;;;;;;;;;;;;;8.57;59.26;97257.09;109799;1249;60943;-65
2022/05/03 04:12:29;;;;;;;;;;;;;;;8.64;59.15;97257.12;109677;1250;60561;-68
2022/05/03 04:14:58;;;;;;;;;;;;;;;8.73;58.71;97260.52;109851;1250;72296;-66
2022/05/03 04:17:28;;;;;;;;;;;;;;;8.83;58.64;97257.63;109841;1250;68638;-69
2022/05/03 04:19:56;;;;;;;;;;;;;;;8.92;58.43;97259.91;109735;1251;68729;-69
2022/05/03 04:22:27;;;;;;;;;;;;;;;9.02;58.08;97260.78;109790;1250;60552;-67
2022/05/03 04:24:56;;;;;;;;;;;;;;;9.15;57.60;97261.13;109836;1250;60522;-67
2022/05/03 04:27:27;;;;;;;;;;;;;;;9.29;57.59;97264.20;109647;1250;71300;-68
2022/05/03 04:29:56;;;;;;;;;;;;;;;9.40;58.79;97259.89;109791;1250;68701;-68
2022/05/03 04:32:29;;;;;;;;;;;;;;;9.49;60.45;97259.09;109601;1251;69494;-69
2022/05/03 04:34:59;;;;;;;;;;;;;;;9.57;61.11;97263.36;109656;1250;60580;-67
2022/05/03 04:37:28;;;;;;;;;;;;;;;9.64;61.98;97263.56;109851;1250;60530;-69
2022/05/03 04:39:57;;;;;;;;;;;;;;;9.71;61.39;97266.02;109819;1250;72304;-67
2022/05/03 04:42:27;;;;;;;;;;;;;;;9.79;60.08;97265.88;109812;1250;68590;-67
2022/05/03 04:44:56;;;;;;;;;;;;;;;9.87;59.35;97265.59;109566;1250;70129;-66
2022/05/03 04:47:25;;;;;;;;;;;;;;;9.97;58.79;97265.23;109799;1250;60478;-66
2022/05/03 04:49:54;;;;;;;;;;;;;;;10.08;57.57;97261.45;109821;1249;60494;-65
2022/05/03 04:52:23;;;;;;;;;;;;;;;10.20;59.20;97265.27;109734;1250;72702;-66
2022/05/03 04:54:52;;;;;;;;;;;;;;;10.32;60.19;97268.78;109791;1250;68386;-66
2022/05/03 04:57:24;;;;;;;;;;;;;;;10.43;61.11;97267.80;109819;1250;69805;-66
2022/05/03 04:59:53;;;;;;;;;;;;;;;10.54;60.24;97270.65;109738;1250;60496;-67
2022/05/03 05:02:25;;;;;;;;;;;;;;;10.66;58.17;97265.73;109873;1250;60945;-69
2022/05/03 05:04:54;;;;;;;;;;;;;;;10.77;56.76;97262.14;109813;1250;71395;-66
2022/05/03 05:07:23;;;;;;;;;;;;;;;10.95;53.76;97266.27;109848;1250;68619;-67
2022/05/03 05:12:40;;;;;;;;;;;;;;;11.32;54.55;97262.08;109839;1250;60495;-67
2022/05/03 05:15:10;;;;;;;;;;;;;;;11.46;54.46;97263.04;109728;1250;60949;-66
2022/05/03 05:17:39;;;;;;;;;;;;;;;11.56;54.32;97263.46;109585;1251;72450;-67
2022/05/03 05:20:08;;;;;;;;;;;;;;;11.63;53.59;97263.43;109899;1250;68692;-68
2022/05/03 05:22:37;;;;;;;;;;;;;;;11.67;52.97;97264.50;109673;1250;68678;-67
2022/05/03 05:25:07;;;;;;;;;;;;;;;11.73;52.70;97265.08;109633;1250;60585;-66
2022/05/03 05:27:36;;;;;;;;;;;;;;;11.80;52.70;97264.39;109936;1250;60568;-66
2022/05/03 05:30:06;;;;;;;;;;;;;;;11.87;52.15;97262.45;109886;1249;70677;-67
2022/05/03 05:32:36;;;;;;;;;;;;;;;12.00;51.82;97256.66;109899;1250;68622;-68
2022/05/03 05:35:05;;;;;;;;;;;;;;;12.16;51.55;97256.10;109803;1250;69460;-67
2022/05/03 05:37:34;;;;;;;;;;;;;;;12.49;51.07;97259.16;109847;1250;60549;-67
2022/05/03 05:40:03;;;;;;;;;;;;;;;12.82;49.35;97260.02;109652;1250;60533;-67
2022/05/03 05:42:32;;;;;;;;;;;;;;;13.19;50.83;97263.58;109730;1249;71991;-67
2022/05/03 05:45:06;;;;;;;;;;;;;;;13.48;48.84;97256.34;109687;1250;67800;-68
2022/05/03 05:47:35;;;;;;;;;;;;;;;13.68;47.43;97256.20;109664;1250;69109;-69
2022/05/03 05:50:04;;;;;;;;;;;;;;;13.86;46.60;97257.07;109682;1250;60503;-68
2022/05/03 05:55:23;;;;;;;;;;;;;;;13.98;44.67;97263.48;109769;1250;72222;-71
2022/05/03 05:57:53;;;;;;;;;;;;;;;14.05;44.27;97260.38;109633;1251;68655;-68
2022/05/03 06:00:22;;;;;;;;;;;;;;;14.10;43.46;97268.23;109540;1251;69504;-68
2022/05/03 06:02:51;;;;;;;;;;;;;;;14.19;43.40;97263.86;109791;1250;60558;-70
2022/05/03 06:05:21;;;;;;;;;;;;;;;14.31;42.35;97267.71;109692;1249;60566;-69
2022/05/03 06:07:50;;;;;;;;;;;;;;;14.36;41.98;97269.52;109849;1250;72157;-69
2022/05/03 06:10:23;;;;;;;;;;;;;;;14.38;41.74;97271.64;109793;1250;68653;-68
2022/05/03 06:12:53;;;;;;;;;;;;;;;14.26;41.04;97268.13;109710;1250;70212;-68
2022/05/03 06:15:21;;;;;;;;;;;;;;;14.10;39.98;97271.32;109647;1251;60597;-69
2022/05/03 06:17:52;;;;;;;;;;;;;;;14.09;40.10;97269.86;109942;1250;60558;-68
2022/05/03 06:20:21;;;;;;;;;;;;;;;14.06;40.75;97269.46;109707;1250;71820;-67
2022/05/03 06:22:50;;;;;;;;;;;;;;;14.07;41.35;97273.23;109714;1249;68045;-68
2022/05/03 06:25:19;;;;;;;;;;;;;;;14.11;41.48;97273.20;109576;1250;69920;-67
2022/05/03 06:27:48;;;;;;;;;;;;;;;14.08;41.05;97274.67;109675;1250;60521;-67
2022/05/03 06:30:18;;;;;;;;;;;;;;;14.00;41.05;97276.59;109722;1250;60432;-66
2022/05/03 06:32:47;;;;;;;;;;;;;;;13.97;41.48;97277.92;109776;1250;71563;-67
2022/05/03 06:35:16;;;;;;;;;;;;;;;13.97;41.36;97277.95;109698;1250;68637;-67
2022/05/03 06:37:46;;;;;;;;;;;;;;;14.00;41.17;97277.98;109636;1250;69620;-67
2022/05/03 06:40:14;;;;;;;;;;;;;;;14.08;41.36;97278.71;109772;1251;60680;-67
2022/05/03 06:42:43;;;;;;;;;;;;;;;14.15;41.46;97273.02;109706;1250;60456;-66
2022/05/03 06:45:12;;;;;;;;;;;;;;;14.17;40.94;97272.52;109708;1250;72396;-66
2022/05/03 06:47:45;;;;;;;;;;;;;;;14.32;41.09;97272.55;109704;1249;68488;-68
2022/05/03 06:50:14;;;;;;;;;;;;;;;14.51;40.69;97277.73;109730;1250;69460;-68
2022/05/03 06:52:55;;;;;;;;;;;;;;;14.67;40.38;97278.50;109732;1249;60559;-67
2022/05/03 06:55:24;;;;;;;;;;;;;;;14.79;40.39;97277.59;109702;1249;60853;-67
2022/05/03 06:57:54;;;;;;;;;;;;;;;14.92;40.75;97274.60;109547;1251;72252;-69
2022/05/03 07:00:23;;;;;;;;;;;;;;;15.14;40.67;97278.04;109555;1251;67958;-68
2022/05/03 07:02:52;;;;;;;;;;;;;;;15.33;40.32;97277.05;109614;1251;69768;-71
2022/05/03 07:05:21;;;;;;;;;;;;;;;15.46;39.26;97279.95;109888;1250;60937;-65
2022/05/03 07:07:50;;;;;;;;;;;;;;;15.58;39.47;97279.82;109686;1250;60516;-67
2022/05/03 07:10:19;;;;;;;;;;;;;;;15.70;39.15;97275.05;109633;1251;72447;-68
2022/05/03 07:12:48;;;;;;;;;;;;;;;15.72;39.07;97279.19;109667;1250;67828;-70
2022/05/03 07:15:18;;;;;;;;;;;;;;;15.71;39.02;97277.43;109681;1250;68921;-67
2022/05/03 07:23:24;;;;;;;;;;;;;;;15.89;38.50;97276.60;109711;1250;71654;-67
2022/05/03 07:25:53;;;;;;;;;;;;;;;16.08;38.73;97275.73;109726;1250;67902;-68
2022/05/03 07:28:22;;;;;;;;;;;;;;;16.18;38.09;97273.02;109709;1250;68760;-67
2022/05/03 07:30:51;;;;;;;;;;;;;;;16.27;38.50;97273.54;109728;1249;60475;-67
2022/05/03 07:33:21;;;;;;;;;;;;;;;16.35;37.77;97274.48;109728;1250;60540;-68
2022/05/03 07:35:50;;;;;;;;;;;;;;;16.29;37.64;97272.95;109703;1249;71682;-69
2022/05/03 07:38:19;;;;;;;;;;;;;;;16.18;37.23;97277.61;109837;1250;67994;-68
2022/05/03 07:40:47;;;;;;;;;;;;;;;16.08;37.48;97280.27;109842;1249;69523;-68
2022/05/03 07:43:16;;;;;;;;;;;;;;;16.12;37.61;97278.20;109640;1250;60505;-67
2022/05/03 07:45:46;;;;;;;;;;;;;;;16.18;37.48;97279.69;109841;1250;60491;-69
2022/05/03 07:48:15;;;;;;;;;;;;;;;16.24;37.83;97278.59;109826;1249;71172;-69
2022/05/03 07:50:45;;;;;;;;;;;;;;;16.41;37.86;97281.66;109808;1250;67836;-68
2022/05/03 07:53:14;;;;;;;;;;;;;;;16.55;37.47;97280.98;109820;1250;68798;-68
2022/05/03 07:55:44;;;;;;;;;;;;;;;16.73;37.51;97281.65;109770;1250;60564;-67
2022/05/03 07:58:14;;;;;;;;;;;;;;;17.05;37.77;97285.02;109823;1249;60524;-69
2022/05/03 08:00:43;;;;;;;;;;;;;;;17.26;37.13;97283.37;109722;1250;71578;-69
2022/05/03 08:03:13;;;;;;;;;;;;;;;17.42;36.83;97287.74;109838;1249;68643;-68
2022/05/03 08:05:42;;;;;;;;;;;;;;;17.62;36.96;97288.84;109849;1250;68839;-67
2022/05/03 08:08:11;;;;;;;;;;;;;;;17.85;36.12;97281.16;109829;1250;60530;-68
2022/05/03 08:10:40;;;;;;;;;;;;;;;17.90;35.16;97280.26;109755;1250;60444;-69
2022/05/03 08:13:09;;;;;;;;;;;;;;;17.74;35.31;97286.14;109852;1250;72114;-69
2022/05/03 08:15:39;;;;;;;;;;;;;;;17.70;35.18;97280.98;109820;1250;67943;-68
2022/05/03 08:18:08;;;;;;;;;;;;;;;17.58;35.33;97281.62;109821;1249;68306;-70
2022/05/03 08:20:38;;;;;;;;;;;;;;;17.60;35.96;97282.29;109867;1250;60440;-68
2022/05/03 08:23:07;;;;;;;;;;;;;;;17.61;35.94;97279.46;109862;1250;60533;-69
2022/05/03 08:25:37;;;;;;;;;;;;;;;17.65;35.81;97276.13;109628;1250;72389;-69
2022/05/03 08:28:06;;;;;;;;;;;;;;;17.80;35.70;97275.55;109824;1249;68779;-68
2022/05/03 08:30:36;;;;;;;;;;;;;;;17.98;35.38;97271.81;109845;1250;69220;-70
2022/05/03 08:33:05;;;;;;;;;;;;;;;18.15;34.83;97271.33;109834;1250;60541;-68
2022/05/03 08:35:36;;;;;;;;;;;;;;;18.29;34.81;97271.09;109740;1250;60552;-68
2022/05/03 08:43:45;;;;;;;;;;;;;;;18.84;32.94;97271.14;109761;1250;68783;-67
2022/05/03 08:46:15;;;;;;;;;;;;;;;19.19;33.16;97269.08;109740;1250;60518;-69
2022/05/03 08:48:45;;;;;;;;;;;;;;;19.54;31.87;97268.91;109879;1248;60552;-68
2022/05/03 08:51:21;;;;;;;;;;;;;;;19.94;31.00;97266.70;109877;1250;72301;-70
2022/05/03 08:53:50;;;;;;;;;;;;;;;20.19;30.10;97268.16;109840;1250;67710;-68
2022/05/03 08:56:20;;;;;;;;;;;;;;;19.89;28.28;97265.92;109834;1250;69456;-67
2022/05/03 08:58:49;;;;;;;;;;;;;;;19.80;28.87;97267.84;109844;1250;60576;-69
2022/05/03 09:01:19;;;;;;;;;;;;;;;19.91;28.71;97266.35;109786;1249;60503;-69
2022/05/03 09:03:48;;;;;;;;;;;;;;;20.14;28.79;97267.13;109805;1248;73007;-68
2022/05/03 09:06:18;;;;;;;;;;;;;;;20.47;29.20;97259.46;109538;1249;451113;-69
2022/05/03 09:08:53;;;;;;;;;;;;;;;20.40;29.09;97262.55;109879;1250;68230;-70
2022/05/03 09:11:22;;;;;;;;;;;;;;;20.50;28.72;97261.01;110024;1249;60576;-70
2022/05/03 09:13:52;;;;;;;;;;;;;;;20.59;27.26;97259.43;109781;1250;60529;-68
2022/05/03 09:16:22;;;;;;;;;;;;;;;20.68;27.50;97258.89;109908;1250;72237;-70
2022/05/03 09:18:57;;;;;;;;;;;;;;;20.60;26.99;97259.14;109874;1249;67946;-69
2022/05/03 09:24:18;;;;;;;;;;;;;;;20.16;28.12;97255.08;109918;1250;60496;-71
2022/05/03 09:26:50;;;;;;;;;;;;;;;20.04;28.18;97253.59;109932;1250;60511;-70
2022/05/03 09:29:22;;;;;;;;;;;;;;;20.08;28.30;97256.16;109856;1250;72351;-72
2022/05/03 09:31:51;;;;;;;;;;;;;;;20.07;28.64;97250.71;109778;1250;68073;-71
2022/05/03 09:34:30;;;;;;;;;;;;;;;20.01;28.51;97251.21;109954;1249;69239;-67
2022/05/03 09:37:05;;;;;;;;;;;;;;;19.89;28.59;97248.20;109793;1250;60628;-69
2022/05/03 09:39:41;;;;;;;;;;;;;;;20.10;28.26;97242.77;109697;1249;60923;-68
2022/05/03 09:42:10;;;;;;;;;;;;;;;20.84;27.93;97243.10;109914;1250;70421;-67
2022/05/03 09:44:50;;;;;;;;;;;;;;;21.19;27.16;97242.37;109813;1250;67627;-69
2022/05/03 09:47:21;;;;;;;;;;;;;;;21.68;26.80;97233.48;109830;1249;68340;-68
2022/05/03 09:49:50;;;;;;;;;;;;;;;22.12;25.94;97230.80;109882;1249;60516;-68
2022/05/03 09:52:31;;;;;;;;;;;;;;;22.69;25.54;97233.38;109898;1250;60499;-68
2022/05/03 09:55:04;;;;;;;;;;;;;;;22.95;24.00;97230.31;109812;1249;71459;-69
2022/05/03 09:57:35;;;;;;;;;;;;;;;22.76;26.00;97224.50;109791;1250;68595;-69
2022/05/03 10:00:08;;;;;;;;;;;;;;;22.80;25.35;97222.08;109877;1250;69337;-69
2022/05/03 10:02:42;;;;;;;;;;;;;;;22.68;24.67;97218.28;109909;1250;60496;-69
2022/05/03 10:05:15;;;;;;;;;;;;;;;22.60;24.41;97214.13;109930;1250;60493;-71
2022/05/03 10:07:50;;;;;;;;;;;;;;;21.71;25.35;97214.22;109917;1250;72188;-69
2022/05/03 10:10:20;;;;;;;;;;;;;;;20.99;26.35;97213.90;109920;1250;67827;-70
2022/05/03 10:12:50;;;;;;;;;;;;;;;20.83;26.86;97215.39;109873;1250;69436;-68
2022/05/03 10:21:09;;;;;;;;;;;;;;;21.20;26.72;97207.80;109832;1250;71050;-70
2022/05/03 10:23:38;;;;;;;;;;;;;;;21.56;27.00;97201.34;109726;1251;68412;-68
2022/05/03 10:26:11;;;;;;;;;;;;;;;22.42;26.52;97200.36;109873;1250;69277;-67
2022/05/03 10:29:03;;;;;;;;;;;;;;;22.81;25.01;97195.65;109987;1250;60490;-67
2022/05/03 10:31:54;;;;;;;;;;;;;;;22.97;25.04;97192.98;110023;1250;60483;-70
2022/05/03 10:34:41;;;;;;;;;;;;;;;22.48;24.77;97187.57;109774;1250;71594;-67
2022/05/03 10:37:17;;;;;;;;;;;;;;;23.22;24.24;97181.54;109775;1250;68427;-66
2022/05/03 10:40:10;;;;;;;;;;;;;;;23.94;23.48;97179.30;109736;1248;68897;-71
2022/05/03 10:42:39;;;;;;;;;;;;;;;24.45;23.28;97181.67;109730;1250;60524;-68
2022/05/03 10:45:07;;;;;;;;;;;;;;;24.01;22.98;97176.36;109679;1251;60473;-69
2022/05/03 10:47:50;;;;;;;;;;;;;;;23.70;23.48;97175.61;109703;1251;72344;-70
2022/05/03 10:50:20;;;;;;;;;;;;;;;23.35;23.93;97169.91;109669;1251;67839;-68
2022/05/03 10:52:55;;;;;;;;;;;;;;;22.80;24.26;97170.83;109508;1251;69524;-69
2022/05/03 10:55:27;;;;;;;;;;;;;;;23.02;24.90;97164.80;109725;1251;60526;-69
2022/05/03 10:58:34;;;;;;;;;;;;;;;23.63;24.27;97159.55;109605;1251;60485;-68
2022/05/03 11:01:08;;;;;;;;;;;;;;;24.24;23.13;97153.98;109030;1260;71515;-68
2022/05/03 11:03:38;;;;;;;;;;;;;;;24.35;22.96;97152.02;109132;1258;67662;-69
2022/05/03 11:06:32;;;;;;;;;;;;;;;24.36;23.02;97146.65;109245;1258;69307;-70
2022/05/03 11:11:34;;;;;;;;;;;;;;;24.69;22.27;97147.26;109132;1260;60636;-68
2022/05/03 11:14:34;;;;;;;;;;;;;;;24.72;22.51;97144.27;109129;1258;72350;-69
2022/05/03 11:17:04;;;;;;;;;;;;;;;24.60;23.27;97139.10;109165;1258;68618;-68
2022/05/03 11:19:34;;;;;;;;;;;;;;;24.58;22.89;97136.96;109258;1257;69744;-69
2022/05/03 11:22:09;;;;;;;;;;;;;;;24.28;22.76;97131.52;109108;1257;60581;-68
2022/05/03 11:24:43;;;;;;;;;;;;;;;24.13;23.10;97132.35;109353;1257;60606;-70
2022/05/03 11:27:13;;;;;;;;;;;;;;;24.03;23.09;97125.52;109243;1257;72410;-69
2022/05/03 11:29:43;;;;;;;;;;;;;;;24.08;23.22;97121.60;109338;1257;68449;-70
2022/05/03 11:32:12;;;;;;;;;;;;;;;23.88;23.22;97117.24;109288;1257;68366;-69
2022/05/03 11:34:41;;;;;;;;;;;;;;;24.09;23.83;97115.10;109291;1253;60463;-69
2022/05/03 11:37:10;;;;;;;;;;;;;;;24.23;23.35;97115.16;109824;1249;60495;-70
2022/05/03 11:39:40;;;;;;;;;;;;;;;24.11;22.89;97110.55;109902;1250;72276;-68
2022/05/03 11:42:11;;;;;;;;;;;;;;;23.46;24.12;97100.61;109851;1250;68701;-68
2022/05/03 11:44:45;;;;;;;;;;;;;;;23.41;24.40;97101.41;109755;1250;69552;-69
2022/05/03 11:47:16;;;;;;;;;;;;;;;23.01;25.00;97102.03;109669;1250;60638;-70
2022/05/03 11:49:50;;;;;;;;;;;;;;;22.71;25.08;97101.39;109656;1250;60505;-68
2022/05/03 11:58:03;;;;;;;;;;;;;;;21.97;26.15;97092.05;109781;1250;69540;-70
2022/05/03 12:00:44;;;;;;;;;;;;;;;22.11;26.02;97089.44;109649;1252;60569;-69
2022/05/03 12:03:17;;;;;;;;;;;;;;;22.44;26.97;97081.69;109608;1250;60516;-71
2022/05/03 12:05:59;;;;;;;;;;;;;;;22.81;25.59;97084.48;109675;1250;71686;-70
2022/05/03 12:08:33;;;;;;;;;;;;;;;23.01;25.38;97078.93;109735;1250;69697;-70
2022/05/03 12:11:03;;;;;;;;;;;;;;;23.27;25.05;97073.06;109517;1251;69485;-70
2022/05/03 12:13:38;;;;;;;;;;;;;;;23.04;24.67;97072.53;109930;1250;60567;-69
2022/05/03 12:16:11;;;;;;;;;;;;;;;22.62;25.33;97068.44;109958;1250;60476;-70
2022/05/03 12:18:41;;;;;;;;;;;;;;;21.78;26.31;97067.93;109909;1250;72325;-69
2022/05/03 12:21:12;;;;;;;;;;;;;;;21.43;26.99;97060.46;109887;1250;68450;-70
2022/05/03 12:23:46;;;;;;;;;;;;;;;20.90;27.64;97056.62;110013;1250;67769;-70
2022/05/03 12:26:19;;;;;;;;;;;;;;;20.91;28.33;97052.25;109882;1250;60490;-70
2022/05/03 12:29:00;;;;;;;;;;;;;;;21.08;28.35;97047.32;109881;1250;60543;-70
2022/05/03 12:31:36;;;;;;;;;;;;;;;20.87;28.04;97044.44;109919;1249;70457;-70
2022/05/03 12:34:10;;;;;;;;;;;;;;;20.41;28.68;97050.36;109711;1250;68556;-69
2022/05/03 12:36:44;;;;;;;;;;;;;;;20.55;28.51;97041.59;109877;1249;68844;-70
2022/05/03 12:39:17;;;;;;;;;;;;;;;20.76;28.34;97035.76;109813;1250;60626;-69
2022/05/03 12:41:55;;;;;;;;;;;;;;;20.84;28.60;97040.31;109804;1253;60511;-69
2022/05/03 12:44:26;;;;;;;;;;;;;;;20.88;28.64;97034.38;109885;1251;71429;-70
2022/05/03 12:47:03;;;;;;;;;;;;;;;20.59;28.37;97031.07;109816;1250;67849;-70
2022/05/03 12:49:34;;;;;;;;;;;;;;;20.90;28.34;97025.59;109655;1250;69546;-68
2022/05/03 12:52:05;;;;;;;;;;;;;;;20.96;28.48;97026.93;109713;1250;60934;-68
2022/05/03 12:54:38;;;;;;;;;;;;;;;21.11;28.36;97029.41;109904;1250;60418;-69
2022/05/03 12:59:57;;;;;;;;;;;;;;;20.18;29.37;97025.32;109954;1249;67793;-70
2022/05/03 13:02:25;;;;;;;;;;;;;;;20.47;29.85;97020.52;109815;1250;69760;-69
2022/05/03 13:04:55;;;;;;;;;;;;;;;20.72;29.32;97021.70;109660;1251;60500;-70
2022/05/03 13:07:24;;;;;;;;;;;;;;;21.08;29.00;97020.94;109912;1250;60570;-71
2022/05/03 13:09:53;;;;;;;;;;;;;;;21.24;28.25;97023.09;109964;1250;71611;-69
2022/05/03 13:12:23;;;;;;;;;;;;;;;21.35;28.22;97019.63;109941;1250;67916;-70
2022/05/03 13:14:53;;;;;;;;;;;;;;;21.43;27.38;97019.65;109735;1250;69368;-68
2022/05/03 13:17:23;;;;;;;;;;;;;;;21.07;27.20;97020.16;109770;1249;60499;-68
2022/05/03 13:19:53;;;;;;;;;;;;;;;21.01;27.65;97015.35;109642;1250;60570;-69
2022/05/03 13:22:22;;;;;;;;;;;;;;;21.02;28.71;97019.02;109755;1250;71571;-69
2022/05/03 13:24:52;;;;;;;;;;;;;;;21.05;27.98;97011.58;109788;1249;67503;-70
2022/05/03 13:27:22;;;;;;;;;;;;;;;21.54;28.05;97013.39;109896;1250;68647;-68
2022/05/03 13:29:55;;;;;;;;;;;;;;;22.00;28.64;97009.42;109778;1250;60898;-70
2022/05/03 13:32:26;;;;;;;;;;;;;;;22.34;27.92;97007.55;109886;1250;60511;-71
2022/05/03 13:34:56;;;;;;;;;;;;;;;22.41;26.87;97006.33;109791;1248;71531;-70
2022/05/03 13:40:29;;;;;;;;;;;;;;;22.77;27.20;97002.38;109784;1250;69421;-71
2022/05/03 13:42:59;;;;;;;;;;;;;;;22.26;25.73;97001.14;109861;1250;60566;-69
2022/05/03 13:45:29;;;;;;;;;;;;;;;22.71;25.69;97002.59;109742;1250;60469;-67
2022/05/03 13:48:18;;;;;;;;;;;;;;;22.85;26.49;96996.73;109813;1250;71590;-69
2022/05/03 13:50:47;;;;;;;;;;;;;;;22.80;26.31;96997.35;109878;1250;68517;-70
2022/05/03 13:53:17;;;;;;;;;;;;;;;22.64;25.24;96998.87;109865;1250;68567;-69
2022/05/03 13:55:46;;;;;;;;;;;;;;;22.71;25.16;96997.15;109858;1250;60494;-70
2022/05/03 13:58:15;;;;;;;;;;;;;;;22.41;25.73;96994.92;110029;1250;60561;-69